Terminal Aerodrome Forecast
Issued by NWS

Home | Current Version | Previous Version | Text Only | Print | Product List | Glossary On
Versions: 1 2 3 4 5 6 7 8 9 10 11 12 13 14 15 16 17 18 19 20 21 22 23 24 25 26 27 28
162
FTUS41 KOKX 291125
TAFHPN
TAF
KHPN 291125Z 2912/3012 09007KT P6SM OVC060
     FM292200 11006KT P6SM -RA OVC050
     FM300300 04005KT P6SM -RA SCT025 OVC040
     FM300500 36005KT P6SM BKN060
      AMD NOT SKED=

USA.gov is the U.S. government's official web portal to all federal, state and local government web resources and services.